sensor_id;sensor_type;location;lat;lon;timestamp;P1;durP1;ratioP1;P2;durP2;ratioP2
10226;SDS011;15634;48.766;2.272;2023-01-10T00:00:07;13.40;;;3.30;;
10226;SDS011;15634;48.766;2.272;2023-01-10T00:02:34;19.40;;;3.83;;
10226;SDS011;15634;48.766;2.272;2023-01-10T00:05:02;16.23;;;4.00;;
10226;SDS011;15634;48.766;2.272;2023-01-10T00:07:30;18.05;;;3.75;;
10226;SDS011;15634;48.766;2.272;2023-01-10T00:09:57;17.40;;;4.20;;
10226;SDS011;15634;48.766;2.272;2023-01-10T00:12:23;17.73;;;3.47;;
10226;SDS011;15634;48.766;2.272;2023-01-10T00:15:08;12.02;;;2.90;;
10226;SDS011;15634;48.766;2.272;2023-01-10T00:17:35;15.88;;;4.00;;
10226;SDS011;15634;48.766;2.272;2023-01-10T00:20:03;15.32;;;4.00;;
10226;SDS011;15634;48.766;2.272;2023-01-10T00:22:30;13.60;;;4.10;;
10226;SDS011;15634;48.766;2.272;2023-01-10T00:24:57;13.95;;;3.95;;
10226;SDS011;15634;48.766;2.272;2023-01-10T00:27:23;17.13;;;3.90;;
10226;SDS011;15634;48.766;2.272;2023-01-10T00:29:50;18.13;;;3.97;;
10226;SDS011;15634;48.766;2.272;2023-01-10T00:32:17;17.10;;;3.50;;
10226;SDS011;15634;48.766;2.272;2023-01-10T00:34:44;17.58;;;4.38;;
10226;SDS011;15634;48.766;2.272;2023-01-10T00:37:12;16.90;;;3.45;;
10226;SDS011;15634;48.766;2.272;2023-01-10T00:39:39;18.48;;;3.58;;
10226;SDS011;15634;48.766;2.272;2023-01-10T00:42:05;17.23;;;3.28;;
10226;SDS011;15634;48.766;2.272;2023-01-10T00:44:50;14.82;;;3.53;;
10226;SDS011;15634;48.766;2.272;2023-01-10T00:47:16;15.38;;;3.67;;
10226;SDS011;15634;48.766;2.272;2023-01-10T00:49:43;12.88;;;3.90;;
10226;SDS011;15634;48.766;2.272;2023-01-10T00:52:09;13.75;;;3.35;;
10226;SDS011;15634;48.766;2.272;2023-01-10T00:54:37;15.23;;;4.28;;
10226;SDS011;15634;48.766;2.272;2023-01-10T00:57:04;16.85;;;4.05;;
10226;SDS011;15634;48.766;2.272;2023-01-10T00:59:31;17.92;;;3.97;;
10226;SDS011;15634;48.766;2.272;2023-01-10T01:01:57;21.23;;;4.10;;
10226;SDS011;15634;48.766;2.272;2023-01-10T01:04:24;17.23;;;4.30;;
10226;SDS011;15634;48.766;2.272;2023-01-10T01:06:50;20.58;;;4.60;;
10226;SDS011;15634;48.766;2.272;2023-01-10T01:09:17;18.08;;;3.65;;
10226;SDS011;15634;48.766;2.272;2023-01-10T01:11:45;22.15;;;4.10;;
10226;SDS011;15634;48.766;2.272;2023-01-10T01:14:11;15.20;;;4.00;;
10226;SDS011;15634;48.766;2.272;2023-01-10T01:16:38;18.08;;;3.70;;
10226;SDS011;15634;48.766;2.272;2023-01-10T01:19:04;16.70;;;4.20;;
10226;SDS011;15634;48.766;2.272;2023-01-10T01:21:31;23.83;;;5.03;;
10226;SDS011;15634;48.766;2.272;2023-01-10T01:23:58;19.75;;;4.95;;
10226;SDS011;15634;48.766;2.272;2023-01-10T01:26:24;17.67;;;4.18;;
10226;SDS011;15634;48.766;2.272;2023-01-10T01:28:53;14.25;;;4.25;;
10226;SDS011;15634;48.766;2.272;2023-01-10T01:31:19;18.55;;;4.63;;
10226;SDS011;15634;48.766;2.272;2023-01-10T01:33:46;13.85;;;3.47;;
10226;SDS011;15634;48.766;2.272;2023-01-10T01:36:12;15.07;;;4.03;;
10226;SDS011;15634;48.766;2.272;2023-01-10T01:38:39;17.48;;;4.15;;
10226;SDS011;15634;48.766;2.272;2023-01-10T01:41:06;16.38;;;3.72;;
10226;SDS011;15634;48.766;2.272;2023-01-10T01:43:59;12.68;;;3.60;;
10226;SDS011;15634;48.766;2.272;2023-01-10T01:46:27;17.27;;;3.53;;
10226;SDS011;15634;48.766;2.272;2023-01-10T01:48:54;16.98;;;3.92;;
10226;SDS011;15634;48.766;2.272;2023-01-10T01:51:21;14.88;;;3.58;;
10226;SDS011;15634;48.766;2.272;2023-01-10T01:53:51;19.02;;;4.28;;
10226;SDS011;15634;48.766;2.272;2023-01-10T01:56:20;22.73;;;4.07;;
10226;SDS011;15634;48.766;2.272;2023-01-10T01:58:49;19.50;;;4.45;;
10226;SDS011;15634;48.766;2.272;2023-01-10T02:01:19;16.35;;;3.67;;
10226;SDS011;15634;48.766;2.272;2023-01-10T02:03:46;18.42;;;3.63;;
10226;SDS011;15634;48.766;2.272;2023-01-10T02:06:15;14.07;;;3.90;;
10226;SDS011;15634;48.766;2.272;2023-01-10T02:08:44;16.60;;;3.97;;
10226;SDS011;15634;48.766;2.272;2023-01-10T02:11:15;18.05;;;3.83;;
10226;SDS011;15634;48.766;2.272;2023-01-10T02:13:42;16.80;;;4.20;;
10226;SDS011;15634;48.766;2.272;2023-01-10T02:16:10;14.90;;;3.47;;
10226;SDS011;15634;48.766;2.272;2023-01-10T02:18:38;15.93;;;3.75;;
10226;SDS011;15634;48.766;2.272;2023-01-10T02:21:11;17.08;;;3.67;;
10226;SDS011;15634;48.766;2.272;2023-01-10T02:29:57;13.82;;;4.00;;
10226;SDS011;15634;48.766;2.272;2023-01-10T02:32:40;19.50;;;3.92;;
10226;SDS011;15634;48.766;2.272;2023-01-10T02:35:17;21.48;;;3.65;;
10226;SDS011;15634;48.766;2.272;2023-01-10T02:37:52;16.85;;;3.75;;
10226;SDS011;15634;48.766;2.272;2023-01-10T02:42:51;11.48;;;3.67;;
10226;SDS011;15634;48.766;2.272;2023-01-10T02:45:23;16.92;;;3.17;;
10226;SDS011;15634;48.766;2.272;2023-01-10T02:47:55;17.35;;;3.75;;
10226;SDS011;15634;48.766;2.272;2023-01-10T02:50:25;18.27;;;4.28;;
10226;SDS011;15634;48.766;2.272;2023-01-10T02:55:21;16.88;;;4.18;;
10226;SDS011;15634;48.766;2.272;2023-01-10T02:57:52;14.57;;;3.97;;
10226;SDS011;15634;48.766;2.272;2023-01-10T03:00:26;17.15;;;3.80;;
10226;SDS011;15634;48.766;2.272;2023-01-10T03:03:04;16.67;;;3.70;;
10226;SDS011;15634;48.766;2.272;2023-01-10T03:05:40;14.00;;;3.40;;
10226;SDS011;15634;48.766;2.272;2023-01-10T03:08:16;13.82;;;3.25;;
10226;SDS011;15634;48.766;2.272;2023-01-10T03:10:46;17.00;;;3.72;;
10226;SDS011;15634;48.766;2.272;2023-01-10T03:13:18;15.52;;;3.50;;
10226;SDS011;15634;48.766;2.272;2023-01-10T03:15:46;16.00;;;3.58;;
10226;SDS011;15634;48.766;2.272;2023-01-10T03:18:16;15.93;;;3.92;;
10226;SDS011;15634;48.766;2.272;2023-01-10T03:20:45;13.02;;;3.30;;
10226;SDS011;15634;48.766;2.272;2023-01-10T03:23:12;15.70;;;3.67;;
10226;SDS011;15634;48.766;2.272;2023-01-10T03:25:40;10.85;;;2.80;;
10226;SDS011;15634;48.766;2.272;2023-01-10T03:28:09;17.80;;;3.80;;
10226;SDS011;15634;48.766;2.272;2023-01-10T03:30:39;19.83;;;3.88;;
10226;SDS011;15634;48.766;2.272;2023-01-10T03:33:07;14.48;;;3.45;;
10226;SDS011;15634;48.766;2.272;2023-01-10T03:35:38;14.80;;;3.55;;
10226;SDS011;15634;48.766;2.272;2023-01-10T03:38:14;13.45;;;3.50;;
10226;SDS011;15634;48.766;2.272;2023-01-10T03:40:47;9.50;;;2.75;;
10226;SDS011;15634;48.766;2.272;2023-01-10T03:43:16;18.13;;;3.67;;
10226;SDS011;15634;48.766;2.272;2023-01-10T03:46:04;19.02;;;3.80;;
10226;SDS011;15634;48.766;2.272;2023-01-10T03:48:35;12.98;;;3.20;;
10226;SDS011;15634;48.766;2.272;2023-01-10T03:51:04;15.27;;;3.95;;
10226;SDS011;15634;48.766;2.272;2023-01-10T03:53:32;13.50;;;3.85;;
10226;SDS011;15634;48.766;2.272;2023-01-10T03:55:59;10.68;;;3.25;;
10226;SDS011;15634;48.766;2.272;2023-01-10T03:58:27;13.75;;;3.75;;
10226;SDS011;15634;48.766;2.272;2023-01-10T04:00:53;13.35;;;3.28;;
10226;SDS011;15634;48.766;2.272;2023-01-10T04:03:20;18.65;;;4.13;;
10226;SDS011;15634;48.766;2.272;2023-01-10T04:05:47;19.42;;;3.45;;
10226;SDS011;15634;48.766;2.272;2023-01-10T04:08:15;10.15;;;3.72;;
10226;SDS011;15634;48.766;2.272;2023-01-10T04:10:41;14.18;;;3.47;;
10226;SDS011;15634;48.766;2.272;2023-01-10T04:13:08;15.93;;;3.58;;
10226;SDS011;15634;48.766;2.272;2023-01-10T04:15:34;12.95;;;3.60;;
10226;SDS011;15634;48.766;2.272;2023-01-10T04:18:01;16.30;;;3.60;;
10226;SDS011;15634;48.766;2.272;2023-01-10T04:20:27;9.32;;;3.00;;
10226;SDS011;15634;48.766;2.272;2023-01-10T04:22:54;17.85;;;3.95;;
10226;SDS011;15634;48.766;2.272;2023-01-10T04:25:22;13.63;;;3.63;;
10226;SDS011;15634;48.766;2.272;2023-01-10T04:27:49;12.43;;;3.92;;
10226;SDS011;15634;48.766;2.272;2023-01-10T04:30:16;16.85;;;3.60;;
10226;SDS011;15634;48.766;2.272;2023-01-10T04:32:43;13.57;;;3.70;;
10226;SDS011;15634;48.766;2.272;2023-01-10T04:35:09;12.95;;;3.42;;
10226;SDS011;15634;48.766;2.272;2023-01-10T04:37:36;12.13;;;3.25;;
10226;SDS011;15634;48.766;2.272;2023-01-10T04:40:03;15.73;;;3.60;;
10226;SDS011;15634;48.766;2.272;2023-01-10T04:42:32;21.38;;;4.13;;
10226;SDS011;15634;48.766;2.272;2023-01-10T04:44:58;17.90;;;3.88;;
10226;SDS011;15634;48.766;2.272;2023-01-10T04:47:25;16.27;;;3.63;;
10226;SDS011;15634;48.766;2.272;2023-01-10T04:49:51;12.32;;;3.72;;
10226;SDS011;15634;48.766;2.272;2023-01-10T04:52:18;14.85;;;3.85;;
10226;SDS011;15634;48.766;2.272;2023-01-10T04:54:45;13.50;;;4.28;;
10226;SDS011;15634;48.766;2.272;2023-01-10T04:57:11;14.57;;;3.78;;
10226;SDS011;15634;48.766;2.272;2023-01-10T04:59:39;14.35;;;4.13;;
10226;SDS011;15634;48.766;2.272;2023-01-10T05:02:06;14.93;;;3.80;;
10226;SDS011;15634;48.766;2.272;2023-01-10T05:04:32;11.27;;;3.08;;
10226;SDS011;15634;48.766;2.272;2023-01-10T05:06:59;15.45;;;4.28;;
10226;SDS011;15634;48.766;2.272;2023-01-10T05:09:25;9.30;;;3.03;;
10226;SDS011;15634;48.766;2.272;2023-01-10T05:11:52;14.75;;;3.45;;
10226;SDS011;15634;48.766;2.272;2023-01-10T05:14:19;13.05;;;3.13;;
10226;SDS011;15634;48.766;2.272;2023-01-10T05:16:47;17.83;;;4.15;;
10226;SDS011;15634;48.766;2.272;2023-01-10T05:19:13;13.88;;;3.75;;
10226;SDS011;15634;48.766;2.272;2023-01-10T05:21:40;15.23;;;3.72;;
10226;SDS011;15634;48.766;2.272;2023-01-10T05:24:07;19.77;;;5.05;;
10226;SDS011;15634;48.766;2.272;2023-01-10T05:26:34;18.10;;;3.65;;
10226;SDS011;15634;48.766;2.272;2023-01-10T05:29:00;13.82;;;3.85;;
10226;SDS011;15634;48.766;2.272;2023-01-10T05:31:27;11.30;;;3.88;;
10226;SDS011;15634;48.766;2.272;2023-01-10T05:33:55;15.38;;;3.60;;
10226;SDS011;15634;48.766;2.272;2023-01-10T05:36:21;16.48;;;3.65;;
10226;SDS011;15634;48.766;2.272;2023-01-10T05:38:48;14.18;;;3.33;;
10226;SDS011;15634;48.766;2.272;2023-01-10T05:41:15;16.83;;;3.63;;
10226;SDS011;15634;48.766;2.272;2023-01-10T05:43:41;10.82;;;3.60;;
10226;SDS011;15634;48.766;2.272;2023-01-10T05:46:08;14.93;;;3.33;;
10226;SDS011;15634;48.766;2.272;2023-01-10T05:48:34;15.00;;;3.83;;
10226;SDS011;15634;48.766;2.272;2023-01-10T05:51:03;11.15;;;3.53;;
10226;SDS011;15634;48.766;2.272;2023-01-10T05:53:29;17.38;;;3.80;;
10226;SDS011;15634;48.766;2.272;2023-01-10T05:55:56;12.60;;;4.18;;
10226;SDS011;15634;48.766;2.272;2023-01-10T05:58:24;18.73;;;4.15;;
10226;SDS011;15634;48.766;2.272;2023-01-10T06:00:51;15.05;;;3.53;;
10226;SDS011;15634;48.766;2.272;2023-01-10T06:03:18;14.77;;;3.70;;
10226;SDS011;15634;48.766;2.272;2023-01-10T06:05:45;13.95;;;4.18;;
10226;SDS011;15634;48.766;2.272;2023-01-10T06:08:13;14.02;;;4.05;;
10226;SDS011;15634;48.766;2.272;2023-01-10T06:10:40;15.98;;;3.97;;
10226;SDS011;15634;48.766;2.272;2023-01-10T06:13:06;16.92;;;3.88;;
10226;SDS011;15634;48.766;2.272;2023-01-10T06:15:34;15.00;;;4.25;;
10226;SDS011;15634;48.766;2.272;2023-01-10T06:18:00;10.35;;;4.13;;
10226;SDS011;15634;48.766;2.272;2023-01-10T06:20:27;18.85;;;4.25;;
10226;SDS011;15634;48.766;2.272;2023-01-10T06:22:54;16.50;;;4.15;;
10226;SDS011;15634;48.766;2.272;2023-01-10T06:25:22;18.45;;;4.40;;
10226;SDS011;15634;48.766;2.272;2023-01-10T06:27:48;14.55;;;4.10;;
10226;SDS011;15634;48.766;2.272;2023-01-10T06:30:15;11.60;;;3.92;;
10226;SDS011;15634;48.766;2.272;2023-01-10T06:32:42;15.82;;;3.78;;
10226;SDS011;15634;48.766;2.272;2023-01-10T06:35:08;14.15;;;4.03;;
10226;SDS011;15634;48.766;2.272;2023-01-10T06:37:35;15.30;;;3.63;;
10226;SDS011;15634;48.766;2.272;2023-01-10T06:40:02;17.38;;;4.38;;
10226;SDS011;15634;48.766;2.272;2023-01-10T06:42:31;13.88;;;4.35;;
10226;SDS011;15634;48.766;2.272;2023-01-10T06:44:57;12.95;;;4.25;;
10226;SDS011;15634;48.766;2.272;2023-01-10T06:47:24;14.68;;;4.10;;
10226;SDS011;15634;48.766;2.272;2023-01-10T06:49:51;17.80;;;4.28;;
10226;SDS011;15634;48.766;2.272;2023-01-10T06:52:17;11.77;;;4.30;;
10226;SDS011;15634;48.766;2.272;2023-01-10T06:54:44;11.60;;;4.10;;
10226;SDS011;15634;48.766;2.272;2023-01-10T06:57:10;13.77;;;5.00;;
10226;SDS011;15634;48.766;2.272;2023-01-10T06:59:38;10.43;;;3.92;;
10226;SDS011;15634;48.766;2.272;2023-01-10T07:02:05;14.07;;;4.45;;
10226;SDS011;15634;48.766;2.272;2023-01-10T07:04:31;17.90;;;4.47;;
10226;SDS011;15634;48.766;2.272;2023-01-10T07:06:59;13.40;;;3.95;;
10226;SDS011;15634;48.766;2.272;2023-01-10T07:09:25;16.20;;;4.43;;
10226;SDS011;15634;48.766;2.272;2023-01-10T07:11:53;10.52;;;4.35;;
10226;SDS011;15634;48.766;2.272;2023-01-10T07:14:19;14.07;;;4.50;;
10226;SDS011;15634;48.766;2.272;2023-01-10T07:16:47;12.93;;;4.20;;
10226;SDS011;15634;48.766;2.272;2023-01-10T07:19:14;18.88;;;4.40;;
10226;SDS011;15634;48.766;2.272;2023-01-10T07:21:41;17.95;;;4.40;;
10226;SDS011;15634;48.766;2.272;2023-01-10T07:24:08;17.10;;;4.35;;
10226;SDS011;15634;48.766;2.272;2023-01-10T07:26:35;15.18;;;4.20;;
10226;SDS011;15634;48.766;2.272;2023-01-10T07:29:01;15.32;;;4.72;;
10226;SDS011;15634;48.766;2.272;2023-01-10T07:31:28;12.85;;;4.22;;
10226;SDS011;15634;48.766;2.272;2023-01-10T07:33:56;18.80;;;4.63;;
10226;SDS011;15634;48.766;2.272;2023-01-10T07:36:23;14.77;;;4.28;;
10226;SDS011;15634;48.766;2.272;2023-01-10T07:38:49;13.15;;;4.57;;
10226;SDS011;15634;48.766;2.272;2023-01-10T07:41:16;14.13;;;4.30;;
10226;SDS011;15634;48.766;2.272;2023-01-10T07:43:42;18.73;;;4.40;;
10226;SDS011;15634;48.766;2.272;2023-01-10T07:46:09;17.27;;;4.65;;
10226;SDS011;15634;48.766;2.272;2023-01-10T07:48:36;20.23;;;4.63;;
10226;SDS011;15634;48.766;2.272;2023-01-10T07:51:06;22.17;;;4.70;;
10226;SDS011;15634;48.766;2.272;2023-01-10T07:53:33;14.27;;;4.35;;
10226;SDS011;15634;48.766;2.272;2023-01-10T07:56:00;16.90;;;4.13;;
10226;SDS011;15634;48.766;2.272;2023-01-10T07:58:27;14.60;;;4.05;;
10226;SDS011;15634;48.766;2.272;2023-01-10T08:00:56;14.80;;;4.82;;
10226;SDS011;15634;48.766;2.272;2023-01-10T08:03:23;20.05;;;4.88;;
10226;SDS011;15634;48.766;2.272;2023-01-10T08:05:55;15.00;;;4.88;;
10226;SDS011;15634;48.766;2.272;2023-01-10T08:08:24;17.35;;;4.90;;
10226;SDS011;15634;48.766;2.272;2023-01-10T08:10:52;18.63;;;4.47;;
10226;SDS011;15634;48.766;2.272;2023-01-10T08:13:18;19.50;;;4.72;;
10226;SDS011;15634;48.766;2.272;2023-01-10T08:15:45;12.48;;;4.50;;
10226;SDS011;15634;48.766;2.272;2023-01-10T08:18:14;14.90;;;4.75;;
10226;SDS011;15634;48.766;2.272;2023-01-10T08:20:41;15.48;;;4.75;;
10226;SDS011;15634;48.766;2.272;2023-01-10T08:23:08;15.68;;;4.28;;
10226;SDS011;15634;48.766;2.272;2023-01-10T08:25:36;10.10;;;3.67;;
10226;SDS011;15634;48.766;2.272;2023-01-10T08:28:02;17.13;;;4.75;;
10226;SDS011;15634;48.766;2.272;2023-01-10T08:30:29;16.75;;;4.38;;
10226;SDS011;15634;48.766;2.272;2023-01-10T08:32:55;13.75;;;3.83;;
10226;SDS011;15634;48.766;2.272;2023-01-10T08:35:22;16.48;;;4.13;;
10226;SDS011;15634;48.766;2.272;2023-01-10T08:37:49;16.70;;;3.85;;
10226;SDS011;15634;48.766;2.272;2023-01-10T08:40:15;14.70;;;4.30;;
10226;SDS011;15634;48.766;2.272;2023-01-10T08:42:43;14.15;;;4.40;;
10226;SDS011;15634;48.766;2.272;2023-01-10T08:45:10;18.10;;;5.78;;
10226;SDS011;15634;48.766;2.272;2023-01-10T08:47:37;23.05;;;5.07;;
10226;SDS011;15634;48.766;2.272;2023-01-10T08:50:04;15.25;;;4.75;;
10226;SDS011;15634;48.766;2.272;2023-01-10T08:52:31;14.73;;;4.82;;
10226;SDS011;15634;48.766;2.272;2023-01-10T08:54:57;16.10;;;4.15;;
10226;SDS011;15634;48.766;2.272;2023-01-10T08:57:24;13.27;;;4.28;;
10226;SDS011;15634;48.766;2.272;2023-01-10T08:59:52;12.73;;;3.63;;
10226;SDS011;15634;48.766;2.272;2023-01-10T09:02:19;11.20;;;4.25;;
10226;SDS011;15634;48.766;2.272;2023-01-10T09:04:45;14.48;;;4.47;;
10226;SDS011;15634;48.766;2.272;2023-01-10T09:07:12;11.23;;;3.90;;
10226;SDS011;15634;48.766;2.272;2023-01-10T09:09:39;18.08;;;4.07;;
10226;SDS011;15634;48.766;2.272;2023-01-10T09:12:05;15.43;;;4.45;;
10226;SDS011;15634;48.766;2.272;2023-01-10T09:14:53;16.70;;;4.65;;
10226;SDS011;15634;48.766;2.272;2023-01-10T09:17:20;16.95;;;4.82;;
10226;SDS011;15634;48.766;2.272;2023-01-10T09:19:47;20.05;;;4.68;;
10226;SDS011;15634;48.766;2.272;2023-01-10T09:22:13;16.85;;;4.63;;
10226;SDS011;15634;48.766;2.272;2023-01-10T09:24:40;18.20;;;5.05;;
10226;SDS011;15634;48.766;2.272;2023-01-10T09:27:08;19.60;;;4.45;;
10226;SDS011;15634;48.766;2.272;2023-01-10T09:29:35;16.17;;;4.75;;
10226;SDS011;15634;48.766;2.272;2023-01-10T09:32:03;16.42;;;4.45;;
10226;SDS011;15634;48.766;2.272;2023-01-10T09:34:30;19.17;;;4.57;;
10226;SDS011;15634;48.766;2.272;2023-01-10T09:36:56;16.33;;;5.47;;
10226;SDS011;15634;48.766;2.272;2023-01-10T09:39:23;18.98;;;6.07;;
10226;SDS011;15634;48.766;2.272;2023-01-10T09:41:58;15.18;;;5.15;;
10226;SDS011;15634;48.766;2.272;2023-01-10T09:44:36;13.95;;;5.60;;
10226;SDS011;15634;48.766;2.272;2023-01-10T09:47:10;20.45;;;5.43;;
10226;SDS011;15634;48.766;2.272;2023-01-10T09:49:44;17.63;;;4.90;;
10226;SDS011;15634;48.766;2.272;2023-01-10T09:52:19;11.38;;;4.03;;
10226;SDS011;15634;48.766;2.272;2023-01-10T09:54:47;17.13;;;4.75;;
10226;SDS011;15634;48.766;2.272;2023-01-10T09:57:16;19.08;;;6.10;;
10226;SDS011;15634;48.766;2.272;2023-01-10T09:59:45;21.58;;;5.57;;
10226;SDS011;15634;48.766;2.272;2023-01-10T10:02:18;19.38;;;6.10;;
10226;SDS011;15634;48.766;2.272;2023-01-10T10:04:54;22.63;;;6.28;;
10226;SDS011;15634;48.766;2.272;2023-01-10T10:07:25;14.35;;;5.10;;
10226;SDS011;15634;48.766;2.272;2023-01-10T10:09:51;14.18;;;5.35;;
10226;SDS011;15634;48.766;2.272;2023-01-10T10:12:22;15.23;;;4.80;;
10226;SDS011;15634;48.766;2.272;2023-01-10T10:14:55;16.48;;;4.95;;
10226;SDS011;15634;48.766;2.272;2023-01-10T10:17:32;15.00;;;4.28;;
10226;SDS011;15634;48.766;2.272;2023-01-10T10:20:09;20.48;;;4.40;;
10226;SDS011;15634;48.766;2.272;2023-01-10T10:22:44;17.25;;;5.65;;
10226;SDS011;15634;48.766;2.272;2023-01-10T10:25:18;14.30;;;4.77;;
10226;SDS011;15634;48.766;2.272;2023-01-10T10:27:58;16.20;;;4.90;;
10226;SDS011;15634;48.766;2.272;2023-01-10T10:30:33;18.00;;;5.13;;
10226;SDS011;15634;48.766;2.272;2023-01-10T10:33:19;15.43;;;4.65;;
10226;SDS011;15634;48.766;2.272;2023-01-10T10:35:52;17.08;;;4.45;;
10226;SDS011;15634;48.766;2.272;2023-01-10T10:38:21;16.77;;;4.15;;
10226;SDS011;15634;48.766;2.272;2023-01-10T10:40:50;14.63;;;4.38;;
10226;SDS011;15634;48.766;2.272;2023-01-10T10:43:18;17.65;;;4.88;;
10226;SDS011;15634;48.766;2.272;2023-01-10T10:45:46;16.75;;;5.05;;
10226;SDS011;15634;48.766;2.272;2023-01-10T10:48:18;17.08;;;4.60;;
10226;SDS011;15634;48.766;2.272;2023-01-10T10:50:50;21.83;;;5.28;;
10226;SDS011;15634;48.766;2.272;2023-01-10T10:53:21;16.65;;;4.55;;
10226;SDS011;15634;48.766;2.272;2023-01-10T10:55:48;17.60;;;4.57;;
10226;SDS011;15634;48.766;2.272;2023-01-10T10:58:15;15.00;;;4.53;;
10226;SDS011;15634;48.766;2.272;2023-01-10T11:00:43;13.73;;;4.13;;
10226;SDS011;15634;48.766;2.272;2023-01-10T11:03:23;13.68;;;4.53;;
10226;SDS011;15634;48.766;2.272;2023-01-10T11:05:54;15.05;;;4.60;;
10226;SDS011;15634;48.766;2.272;2023-01-10T11:08:21;21.67;;;5.15;;
10226;SDS011;15634;48.766;2.272;2023-01-10T11:10:51;16.20;;;4.93;;
10226;SDS011;15634;48.766;2.272;2023-01-10T11:13:20;16.77;;;4.53;;
10226;SDS011;15634;48.766;2.272;2023-01-10T11:15:55;13.48;;;4.43;;
10226;SDS011;15634;48.766;2.272;2023-01-10T11:18:22;13.63;;;4.28;;
10226;SDS011;15634;48.766;2.272;2023-01-10T11:20:52;21.23;;;4.63;;
10226;SDS011;15634;48.766;2.272;2023-01-10T11:23:23;21.50;;;4.72;;
10226;SDS011;15634;48.766;2.272;2023-01-10T11:25:55;17.05;;;4.65;;
10226;SDS011;15634;48.766;2.272;2023-01-10T11:28:23;13.18;;;4.18;;
10226;SDS011;15634;48.766;2.272;2023-01-10T11:30:51;14.63;;;4.40;;
10226;SDS011;15634;48.766;2.272;2023-01-10T11:33:19;15.90;;;4.35;;
10226;SDS011;15634;48.766;2.272;2023-01-10T11:35:56;13.68;;;3.95;;
10226;SDS011;15634;48.766;2.272;2023-01-10T11:38:25;15.82;;;4.45;;
10226;SDS011;15634;48.766;2.272;2023-01-10T11:40:55;11.82;;;4.05;;
10226;SDS011;15634;48.766;2.272;2023-01-10T11:43:24;21.80;;;4.68;;
10226;SDS011;15634;48.766;2.272;2023-01-10T11:45:54;16.73;;;4.40;;
10226;SDS011;15634;48.766;2.272;2023-01-10T11:48:22;13.23;;;4.50;;
10226;SDS011;15634;48.766;2.272;2023-01-10T11:50:51;15.98;;;3.90;;
10226;SDS011;15634;48.766;2.272;2023-01-10T11:53:36;19.20;;;3.60;;
10226;SDS011;15634;48.766;2.272;2023-01-10T11:56:05;17.48;;;3.85;;
10226;SDS011;15634;48.766;2.272;2023-01-10T11:58:33;15.38;;;3.83;;
10226;SDS011;15634;48.766;2.272;2023-01-10T12:01:00;17.75;;;4.70;;
10226;SDS011;15634;48.766;2.272;2023-01-10T12:03:28;16.90;;;4.53;;
10226;SDS011;15634;48.766;2.272;2023-01-10T12:05:59;14.75;;;4.57;;
10226;SDS011;15634;48.766;2.272;2023-01-10T12:08:29;13.00;;;3.72;;
10226;SDS011;15634;48.766;2.272;2023-01-10T12:10:59;12.57;;;4.45;;
10226;SDS011;15634;48.766;2.272;2023-01-10T12:13:28;18.70;;;4.53;;
10226;SDS011;15634;48.766;2.272;2023-01-10T12:16:13;16.20;;;4.65;;
10226;SDS011;15634;48.766;2.272;2023-01-10T12:18:43;15.68;;;3.60;;
10226;SDS011;15634;48.766;2.272;2023-01-10T12:21:11;14.85;;;3.67;;
10226;SDS011;15634;48.766;2.272;2023-01-10T12:23:39;13.57;;;4.30;;
10226;SDS011;15634;48.766;2.272;2023-01-10T12:26:09;9.30;;;4.35;;
10226;SDS011;15634;48.766;2.272;2023-01-10T12:28:37;17.73;;;4.35;;
10226;SDS011;15634;48.766;2.272;2023-01-10T12:31:05;10.50;;;4.35;;
10226;SDS011;15634;48.766;2.272;2023-01-10T12:33:32;18.20;;;4.28;;
10226;SDS011;15634;48.766;2.272;2023-01-10T12:36:03;8.75;;;3.58;;
10226;SDS011;15634;48.766;2.272;2023-01-10T12:38:39;12.90;;;4.18;;
10226;SDS011;15634;48.766;2.272;2023-01-10T12:41:27;7.82;;;3.30;;
10226;SDS011;15634;48.766;2.272;2023-01-10T12:44:25;11.45;;;3.45;;
10226;SDS011;15634;48.766;2.272;2023-01-10T12:46:55;11.88;;;3.83;;
10226;SDS011;15634;48.766;2.272;2023-01-10T12:49:24;15.18;;;4.60;;
10226;SDS011;15634;48.766;2.272;2023-01-10T12:51:54;12.93;;;4.00;;
10226;SDS011;15634;48.766;2.272;2023-01-10T12:54:25;5.88;;;3.10;;
10226;SDS011;15634;48.766;2.272;2023-01-10T12:56:54;12.52;;;3.97;;
10226;SDS011;15634;48.766;2.272;2023-01-10T12:59:24;10.27;;;4.03;;
10226;SDS011;15634;48.766;2.272;2023-01-10T13:01:53;10.82;;;3.65;;
10226;SDS011;15634;48.766;2.272;2023-01-10T13:04:21;10.40;;;3.55;;
10226;SDS011;15634;48.766;2.272;2023-01-10T13:06:49;9.05;;;3.20;;
10226;SDS011;15634;48.766;2.272;2023-01-10T13:09:16;8.65;;;3.40;;
10226;SDS011;15634;48.766;2.272;2023-01-10T13:11:45;10.13;;;3.95;;
10226;SDS011;15634;48.766;2.272;2023-01-10T13:14:17;9.05;;;3.25;;
10226;SDS011;15634;48.766;2.272;2023-01-10T13:16:48;9.13;;;3.38;;
10226;SDS011;15634;48.766;2.272;2023-01-10T13:19:22;8.07;;;3.25;;
10226;SDS011;15634;48.766;2.272;2023-01-10T13:21:55;9.55;;;3.70;;
10226;SDS011;15634;48.766;2.272;2023-01-10T13:24:56;11.63;;;3.67;;
10226;SDS011;15634;48.766;2.272;2023-01-10T13:27:24;16.52;;;4.43;;
10226;SDS011;15634;48.766;2.272;2023-01-10T13:29:56;9.35;;;3.92;;
10226;SDS011;15634;48.766;2.272;2023-01-10T13:32:23;11.63;;;3.28;;
10226;SDS011;15634;48.766;2.272;2023-01-10T13:34:52;8.38;;;3.40;;
10226;SDS011;15634;48.766;2.272;2023-01-10T13:37:20;9.40;;;3.58;;
10226;SDS011;15634;48.766;2.272;2023-01-10T13:39:50;9.15;;;4.00;;
10226;SDS011;15634;48.766;2.272;2023-01-10T13:42:27;9.00;;;3.85;;
10226;SDS011;15634;48.766;2.272;2023-01-10T13:45:18;10.43;;;4.30;;
10226;SDS011;15634;48.766;2.272;2023-01-10T13:50:52;10.30;;;3.90;;
10226;SDS011;15634;48.766;2.272;2023-01-10T13:53:40;10.90;;;3.85;;
10226;SDS011;15634;48.766;2.272;2023-01-10T13:58:55;10.82;;;3.63;;
10226;SDS011;15634;48.766;2.272;2023-01-10T14:01:40;11.68;;;3.80;;
10226;SDS011;15634;48.766;2.272;2023-01-10T14:04:25;11.48;;;3.83;;
10226;SDS011;15634;48.766;2.272;2023-01-10T14:06:53;10.82;;;3.95;;
10226;SDS011;15634;48.766;2.272;2023-01-10T14:12:23;10.73;;;3.20;;
10226;SDS011;15634;48.766;2.272;2023-01-10T14:14:53;7.60;;;3.10;;
10226;SDS011;15634;48.766;2.272;2023-01-10T14:17:24;10.38;;;3.50;;
10226;SDS011;15634;48.766;2.272;2023-01-10T14:22:45;6.68;;;3.08;;
10226;SDS011;15634;48.766;2.272;2023-01-10T14:25:22;6.47;;;3.05;;
10226;SDS011;15634;48.766;2.272;2023-01-10T14:27:51;9.32;;;3.15;;
10226;SDS011;15634;48.766;2.272;2023-01-10T14:30:20;8.43;;;3.25;;
10226;SDS011;15634;48.766;2.272;2023-01-10T14:32:50;10.38;;;3.35;;
10226;SDS011;15634;48.766;2.272;2023-01-10T14:35:19;4.90;;;2.70;;
10226;SDS011;15634;48.766;2.272;2023-01-10T14:37:49;8.57;;;3.10;;
10226;SDS011;15634;48.766;2.272;2023-01-10T14:40:18;5.32;;;2.67;;
10226;SDS011;15634;48.766;2.272;2023-01-10T14:42:49;5.43;;;2.60;;
10226;SDS011;15634;48.766;2.272;2023-01-10T14:45:25;5.70;;;3.05;;
10226;SDS011;15634;48.766;2.272;2023-01-10T14:47:57;5.43;;;3.10;;
10226;SDS011;15634;48.766;2.272;2023-01-10T14:50:24;5.38;;;2.60;;
10226;SDS011;15634;48.766;2.272;2023-01-10T14:52:56;4.43;;;2.65;;
10226;SDS011;15634;48.766;2.272;2023-01-10T14:55:23;7.88;;;2.97;;
10226;SDS011;15634;48.766;2.272;2023-01-10T14:57:54;5.30;;;2.72;;
10226;SDS011;15634;48.766;2.272;2023-01-10T15:00:24;4.22;;;2.60;;
10226;SDS011;15634;48.766;2.272;2023-01-10T15:02:52;4.50;;;2.60;;
10226;SDS011;15634;48.766;2.272;2023-01-10T15:05:21;4.85;;;2.70;;
10226;SDS011;15634;48.766;2.272;2023-01-10T15:07:50;6.07;;;3.15;;
10226;SDS011;15634;48.766;2.272;2023-01-10T15:10:19;6.47;;;2.80;;